sensor_id;sensor_type;location;lat;lon;timestamp;P1;durP1;ratioP1;P2;durP2;ratioP2
71965;SDS011;59836;52.132;5.442;2023-08-17T00:01:21;3.23;;;1.83;;
71965;SDS011;59836;52.132;5.442;2023-08-17T00:03:51;3.13;;;1.83;;
71965;SDS011;59836;52.132;5.442;2023-08-17T00:06:18;6.50;;;2.03;;
71965;SDS011;59836;52.132;5.442;2023-08-17T00:08:46;5.18;;;1.70;;
71965;SDS011;59836;52.132;5.442;2023-08-17T00:11:13;4.35;;;2.03;;
71965;SDS011;59836;52.132;5.442;2023-08-17T00:13:45;5.43;;;2.23;;
71965;SDS011;59836;52.132;5.442;2023-08-17T00:16:19;4.13;;;1.85;;
71965;SDS011;59836;52.132;5.442;2023-08-17T00:18:46;5.35;;;1.90;;
71965;SDS011;59836;52.132;5.442;2023-08-17T00:21:15;4.10;;;2.40;;
71965;SDS011;59836;52.132;5.442;2023-08-17T00:23:42;4.50;;;2.20;;
71965;SDS011;59836;52.132;5.442;2023-08-17T00:26:15;3.77;;;2.27;;
71965;SDS011;59836;52.132;5.442;2023-08-17T00:28:48;2.65;;;2.28;;
71965;SDS011;59836;52.132;5.442;2023-08-17T00:31:15;4.43;;;2.38;;
71965;SDS011;59836;52.132;5.442;2023-08-17T00:33:41;4.97;;;2.25;;
71965;SDS011;59836;52.132;5.442;2023-08-17T00:36:08;5.25;;;2.00;;
71965;SDS011;59836;52.132;5.442;2023-08-17T00:38:37;3.57;;;2.07;;
71965;SDS011;59836;52.132;5.442;2023-08-17T00:41:11;4.95;;;2.20;;
71965;SDS011;59836;52.132;5.442;2023-08-17T00:43:43;4.43;;;2.22;;
71965;SDS011;59836;52.132;5.442;2023-08-17T00:46:10;4.22;;;1.85;;
71965;SDS011;59836;52.132;5.442;2023-08-17T00:48:50;4.65;;;2.20;;
71965;SDS011;59836;52.132;5.442;2023-08-17T00:51:21;4.37;;;2.07;;
71965;SDS011;59836;52.132;5.442;2023-08-17T00:53:50;5.10;;;2.00;;
71965;SDS011;59836;52.132;5.442;2023-08-17T00:56:17;5.68;;;1.90;;
71965;SDS011;59836;52.132;5.442;2023-08-17T00:58:44;4.53;;;2.17;;
71965;SDS011;59836;52.132;5.442;2023-08-17T01:01:11;5.38;;;2.42;;
71965;SDS011;59836;52.132;5.442;2023-08-17T01:03:45;3.03;;;1.80;;
71965;SDS011;59836;52.132;5.442;2023-08-17T01:06:22;4.43;;;2.28;;
71965;SDS011;59836;52.132;5.442;2023-08-17T01:08:49;4.35;;;2.25;;
71965;SDS011;59836;52.132;5.442;2023-08-17T01:20:41;4.10;;;2.67;;
71965;SDS011;59836;52.132;5.442;2023-08-17T01:23:10;4.88;;;1.70;;
71965;SDS011;59836;52.132;5.442;2023-08-17T01:25:39;4.03;;;2.05;;
71965;SDS011;59836;52.132;5.442;2023-08-17T01:28:08;5.07;;;1.77;;
71965;SDS011;59836;52.132;5.442;2023-08-17T01:30:39;4.73;;;2.30;;
71965;SDS011;59836;52.132;5.442;2023-08-17T01:39:37;3.75;;;1.88;;
71965;SDS011;59836;52.132;5.442;2023-08-17T01:42:06;5.05;;;2.10;;
71965;SDS011;59836;52.132;5.442;2023-08-17T01:44:34;2.10;;;1.67;;
71965;SDS011;59836;52.132;5.442;2023-08-17T01:49:33;3.05;;;1.75;;
71965;SDS011;59836;52.132;5.442;2023-08-17T01:51:59;3.83;;;2.30;;
71965;SDS011;59836;52.132;5.442;2023-08-17T01:59:49;3.17;;;1.70;;
71965;SDS011;59836;52.132;5.442;2023-08-17T02:02:15;3.78;;;1.83;;
71965;SDS011;59836;52.132;5.442;2023-08-17T02:04:43;3.45;;;1.83;;
71965;SDS011;59836;52.132;5.442;2023-08-17T02:07:10;4.13;;;1.98;;
71965;SDS011;59836;52.132;5.442;2023-08-17T02:09:37;4.40;;;2.30;;
71965;SDS011;59836;52.132;5.442;2023-08-17T02:12:03;3.22;;;1.92;;
71965;SDS011;59836;52.132;5.442;2023-08-17T02:14:31;3.78;;;1.95;;
71965;SDS011;59836;52.132;5.442;2023-08-17T02:16:58;4.35;;;2.50;;
71965;SDS011;59836;52.132;5.442;2023-08-17T02:19:24;5.57;;;2.35;;
71965;SDS011;59836;52.132;5.442;2023-08-17T02:21:51;3.67;;;2.10;;
71965;SDS011;59836;52.132;5.442;2023-08-17T02:24:18;3.90;;;2.20;;
71965;SDS011;59836;52.132;5.442;2023-08-17T02:26:44;5.78;;;2.50;;
71965;SDS011;59836;52.132;5.442;2023-08-17T02:29:23;2.95;;;2.45;;
71965;SDS011;59836;52.132;5.442;2023-08-17T02:31:50;3.50;;;2.10;;
71965;SDS011;59836;52.132;5.442;2023-08-17T02:34:16;3.70;;;2.33;;
71965;SDS011;59836;52.132;5.442;2023-08-17T02:36:43;4.85;;;2.85;;
71965;SDS011;59836;52.132;5.442;2023-08-17T02:39:09;5.25;;;2.25;;
71965;SDS011;59836;52.132;5.442;2023-08-17T02:41:41;3.85;;;2.28;;
71965;SDS011;59836;52.132;5.442;2023-08-17T02:44:08;4.15;;;2.22;;
71965;SDS011;59836;52.132;5.442;2023-08-17T02:46:41;5.00;;;2.30;;
71965;SDS011;59836;52.132;5.442;2023-08-17T02:49:12;3.78;;;2.33;;
71965;SDS011;59836;52.132;5.442;2023-08-17T02:54:29;5.95;;;2.75;;
71965;SDS011;59836;52.132;5.442;2023-08-17T02:56:55;4.78;;;2.65;;
71965;SDS011;59836;52.132;5.442;2023-08-17T03:02:12;5.75;;;2.58;;
71965;SDS011;59836;52.132;5.442;2023-08-17T03:04:39;5.97;;;2.15;;
71965;SDS011;59836;52.132;5.442;2023-08-17T03:07:05;5.28;;;2.80;;
71965;SDS011;59836;52.132;5.442;2023-08-17T03:12:18;6.10;;;2.50;;
71965;SDS011;59836;52.132;5.442;2023-08-17T03:14:47;6.53;;;2.40;;
71965;SDS011;59836;52.132;5.442;2023-08-17T03:17:17;5.75;;;2.10;;
71965;SDS011;59836;52.132;5.442;2023-08-17T03:19:43;5.57;;;2.70;;
71965;SDS011;59836;52.132;5.442;2023-08-17T03:22:10;4.97;;;2.38;;
71965;SDS011;59836;52.132;5.442;2023-08-17T03:29:47;6.25;;;2.65;;
71965;SDS011;59836;52.132;5.442;2023-08-17T03:32:14;4.57;;;2.28;;
71965;SDS011;59836;52.132;5.442;2023-08-17T03:37:19;5.70;;;2.40;;
71965;SDS011;59836;52.132;5.442;2023-08-17T03:39:45;5.05;;;1.73;;
71965;SDS011;59836;52.132;5.442;2023-08-17T03:42:24;5.13;;;1.90;;
71965;SDS011;59836;52.132;5.442;2023-08-17T03:45:05;4.00;;;1.95;;
71965;SDS011;59836;52.132;5.442;2023-08-17T03:47:37;4.38;;;2.50;;
71965;SDS011;59836;52.132;5.442;2023-08-17T03:50:05;4.33;;;2.00;;
71965;SDS011;59836;52.132;5.442;2023-08-17T03:52:32;5.55;;;2.28;;
71965;SDS011;59836;52.132;5.442;2023-08-17T03:55:04;4.63;;;2.20;;
71965;SDS011;59836;52.132;5.442;2023-08-17T03:57:33;5.65;;;2.05;;
71965;SDS011;59836;52.132;5.442;2023-08-17T04:02:39;5.87;;;2.07;;
71965;SDS011;59836;52.132;5.442;2023-08-17T04:05:06;4.75;;;2.28;;
71965;SDS011;59836;52.132;5.442;2023-08-17T04:07:33;4.57;;;1.73;;
71965;SDS011;59836;52.132;5.442;2023-08-17T04:10:04;6.18;;;2.20;;
71965;SDS011;59836;52.132;5.442;2023-08-17T04:12:46;4.00;;;1.55;;
71965;SDS011;59836;52.132;5.442;2023-08-17T04:15:12;3.63;;;2.00;;
71965;SDS011;59836;52.132;5.442;2023-08-17T04:17:39;4.25;;;1.98;;
71965;SDS011;59836;52.132;5.442;2023-08-17T04:20:17;4.05;;;1.70;;
71965;SDS011;59836;52.132;5.442;2023-08-17T04:22:46;6.78;;;1.80;;
71965;SDS011;59836;52.132;5.442;2023-08-17T04:25:12;2.72;;;1.50;;
71965;SDS011;59836;52.132;5.442;2023-08-17T04:27:39;4.77;;;1.57;;
71965;SDS011;59836;52.132;5.442;2023-08-17T04:33:00;3.85;;;1.48;;
71965;SDS011;59836;52.132;5.442;2023-08-17T04:35:27;3.10;;;1.40;;
71965;SDS011;59836;52.132;5.442;2023-08-17T04:38:11;4.53;;;1.52;;
71965;SDS011;59836;52.132;5.442;2023-08-17T04:40:37;3.03;;;2.10;;
71965;SDS011;59836;52.132;5.442;2023-08-17T04:43:05;4.30;;;2.13;;
71965;SDS011;59836;52.132;5.442;2023-08-17T04:45:35;5.07;;;1.83;;
71965;SDS011;59836;52.132;5.442;2023-08-17T04:48:02;2.75;;;1.40;;
71965;SDS011;59836;52.132;5.442;2023-08-17T04:50:37;2.42;;;1.40;;
71965;SDS011;59836;52.132;5.442;2023-08-17T04:53:12;4.67;;;1.60;;
71965;SDS011;59836;52.132;5.442;2023-08-17T04:55:38;4.45;;;1.27;;
71965;SDS011;59836;52.132;5.442;2023-08-17T04:58:17;2.13;;;1.15;;
71965;SDS011;59836;52.132;5.442;2023-08-17T05:03:26;3.95;;;1.45;;
71965;SDS011;59836;52.132;5.442;2023-08-17T05:05:59;3.47;;;1.47;;
71965;SDS011;59836;52.132;5.442;2023-08-17T05:08:30;4.45;;;1.20;;
71965;SDS011;59836;52.132;5.442;2023-08-17T05:10:57;3.25;;;1.50;;
71965;SDS011;59836;52.132;5.442;2023-08-17T05:13:24;3.40;;;1.75;;
71965;SDS011;59836;52.132;5.442;2023-08-17T05:16:04;2.72;;;1.38;;
71965;SDS011;59836;52.132;5.442;2023-08-17T05:18:31;3.87;;;1.57;;
71965;SDS011;59836;52.132;5.442;2023-08-17T05:21:14;3.47;;;1.58;;
71965;SDS011;59836;52.132;5.442;2023-08-17T05:23:41;2.30;;;1.40;;
71965;SDS011;59836;52.132;5.442;2023-08-17T05:26:19;2.85;;;1.20;;
71965;SDS011;59836;52.132;5.442;2023-08-17T05:28:52;3.30;;;1.30;;
71965;SDS011;59836;52.132;5.442;2023-08-17T05:31:26;6.37;;;1.90;;
71965;SDS011;59836;52.132;5.442;2023-08-17T05:33:55;3.58;;;1.42;;
71965;SDS011;59836;52.132;5.442;2023-08-17T05:39:11;1.70;;;1.60;;
71965;SDS011;59836;52.132;5.442;2023-08-17T05:44:17;3.87;;;1.60;;
71965;SDS011;59836;52.132;5.442;2023-08-17T05:46:44;4.50;;;1.50;;
71965;SDS011;59836;52.132;5.442;2023-08-17T05:49:18;3.55;;;1.73;;
71965;SDS011;59836;52.132;5.442;2023-08-17T05:51:49;4.65;;;2.08;;
71965;SDS011;59836;52.132;5.442;2023-08-17T05:54:18;4.53;;;1.67;;
71965;SDS011;59836;52.132;5.442;2023-08-17T06:03:47;4.10;;;1.40;;
71965;SDS011;59836;52.132;5.442;2023-08-17T06:06:22;4.68;;;1.80;;
71965;SDS011;59836;52.132;5.442;2023-08-17T06:08:51;4.03;;;2.00;;
71965;SDS011;59836;52.132;5.442;2023-08-17T06:14:27;4.13;;;1.85;;
71965;SDS011;59836;52.132;5.442;2023-08-17T06:16:57;5.82;;;1.58;;
71965;SDS011;59836;52.132;5.442;2023-08-17T06:19:27;3.80;;;1.20;;
71965;SDS011;59836;52.132;5.442;2023-08-17T06:22:03;6.85;;;1.95;;
71965;SDS011;59836;52.132;5.442;2023-08-17T06:24:39;4.73;;;1.70;;
71965;SDS011;59836;52.132;5.442;2023-08-17T06:27:19;3.25;;;1.67;;
71965;SDS011;59836;52.132;5.442;2023-08-17T06:29:56;3.67;;;1.98;;
71965;SDS011;59836;52.132;5.442;2023-08-17T06:32:28;5.18;;;2.20;;
71965;SDS011;59836;52.132;5.442;2023-08-17T06:37:50;3.27;;;1.80;;
71965;SDS011;59836;52.132;5.442;2023-08-17T06:40:17;4.20;;;1.50;;
71965;SDS011;59836;52.132;5.442;2023-08-17T06:42:57;5.13;;;1.70;;
71965;SDS011;59836;52.132;5.442;2023-08-17T06:45:36;4.32;;;2.03;;
71965;SDS011;59836;52.132;5.442;2023-08-17T06:48:06;4.35;;;1.80;;
71965;SDS011;59836;52.132;5.442;2023-08-17T06:50:32;6.17;;;1.80;;
71965;SDS011;59836;52.132;5.442;2023-08-17T06:53:00;2.83;;;1.15;;
71965;SDS011;59836;52.132;5.442;2023-08-17T06:55:36;5.50;;;1.50;;
71965;SDS011;59836;52.132;5.442;2023-08-17T06:58:28;4.15;;;1.67;;
71965;SDS011;59836;52.132;5.442;2023-08-17T07:00:55;2.33;;;1.48;;
71965;SDS011;59836;52.132;5.442;2023-08-17T07:03:39;5.00;;;1.57;;
71965;SDS011;59836;52.132;5.442;2023-08-17T07:06:05;3.47;;;1.17;;
71965;SDS011;59836;52.132;5.442;2023-08-17T07:08:35;3.58;;;1.20;;
71965;SDS011;59836;52.132;5.442;2023-08-17T07:11:02;4.43;;;1.85;;
71965;SDS011;59836;52.132;5.442;2023-08-17T07:13:34;4.35;;;1.67;;
71965;SDS011;59836;52.132;5.442;2023-08-17T07:16:01;5.40;;;1.53;;
71965;SDS011;59836;52.132;5.442;2023-08-17T07:18:38;4.18;;;1.88;;
71965;SDS011;59836;52.132;5.442;2023-08-17T07:21:18;3.30;;;1.42;;
71965;SDS011;59836;52.132;5.442;2023-08-17T07:23:55;3.97;;;1.40;;
71965;SDS011;59836;52.132;5.442;2023-08-17T07:26:22;5.93;;;1.70;;
71965;SDS011;59836;52.132;5.442;2023-08-17T07:28:49;3.37;;;1.40;;
71965;SDS011;59836;52.132;5.442;2023-08-17T07:31:17;2.50;;;1.20;;
71965;SDS011;59836;52.132;5.442;2023-08-17T07:33:43;4.55;;;1.63;;
71965;SDS011;59836;52.132;5.442;2023-08-17T07:36:10;2.95;;;1.40;;
71965;SDS011;59836;52.132;5.442;2023-08-17T07:38:37;5.55;;;1.73;;
71965;SDS011;59836;52.132;5.442;2023-08-17T07:41:03;4.50;;;1.87;;
71965;SDS011;59836;52.132;5.442;2023-08-17T07:43:32;4.32;;;1.75;;
71965;SDS011;59836;52.132;5.442;2023-08-17T07:46:07;5.15;;;1.63;;
71965;SDS011;59836;52.132;5.442;2023-08-17T07:51:19;5.05;;;1.75;;
71965;SDS011;59836;52.132;5.442;2023-08-17T07:53:45;7.33;;;2.23;;
71965;SDS011;59836;52.132;5.442;2023-08-17T07:56:12;3.00;;;1.67;;
71965;SDS011;59836;52.132;5.442;2023-08-17T07:58:53;3.40;;;1.45;;
71965;SDS011;59836;52.132;5.442;2023-08-17T08:01:21;5.35;;;2.10;;
71965;SDS011;59836;52.132;5.442;2023-08-17T08:06:40;4.63;;;1.90;;
71965;SDS011;59836;52.132;5.442;2023-08-17T08:09:10;3.53;;;2.25;;
71965;SDS011;59836;52.132;5.442;2023-08-17T08:11:41;10.40;;;1.63;;
71965;SDS011;59836;52.132;5.442;2023-08-17T08:14:07;3.70;;;1.52;;
71965;SDS011;59836;52.132;5.442;2023-08-17T08:16:34;3.40;;;1.70;;
71965;SDS011;59836;52.132;5.442;2023-08-17T08:19:01;5.00;;;2.03;;
71965;SDS011;59836;52.132;5.442;2023-08-17T08:21:31;3.83;;;1.25;;
71965;SDS011;59836;52.132;5.442;2023-08-17T08:23:58;4.13;;;1.80;;
71965;SDS011;59836;52.132;5.442;2023-08-17T08:26:25;5.30;;;1.77;;
71965;SDS011;59836;52.132;5.442;2023-08-17T08:28:54;4.65;;;2.25;;
71965;SDS011;59836;52.132;5.442;2023-08-17T08:31:23;4.30;;;1.90;;
71965;SDS011;59836;52.132;5.442;2023-08-17T08:33:53;4.57;;;2.00;;
71965;SDS011;59836;52.132;5.442;2023-08-17T08:36:30;3.15;;;1.00;;
71965;SDS011;59836;52.132;5.442;2023-08-17T08:39:10;3.55;;;1.70;;
71965;SDS011;59836;52.132;5.442;2023-08-17T08:41:38;5.13;;;1.77;;
71965;SDS011;59836;52.132;5.442;2023-08-17T08:44:05;6.03;;;1.60;;
71965;SDS011;59836;52.132;5.442;2023-08-17T08:46:48;4.03;;;1.60;;
71965;SDS011;59836;52.132;5.442;2023-08-17T08:49:44;3.70;;;1.42;;
71965;SDS011;59836;52.132;5.442;2023-08-17T08:52:50;3.05;;;1.52;;
71965;SDS011;59836;52.132;5.442;2023-08-17T08:55:38;3.75;;;1.58;;
71965;SDS011;59836;52.132;5.442;2023-08-17T08:58:14;3.20;;;1.50;;
71965;SDS011;59836;52.132;5.442;2023-08-17T09:00:45;3.50;;;1.30;;
71965;SDS011;59836;52.132;5.442;2023-08-17T09:03:14;3.42;;;1.23;;
71965;SDS011;59836;52.132;5.442;2023-08-17T09:05:53;4.38;;;1.50;;
71965;SDS011;59836;52.132;5.442;2023-08-17T09:08:27;4.82;;;1.83;;
71965;SDS011;59836;52.132;5.442;2023-08-17T09:10:58;2.63;;;1.43;;
71965;SDS011;59836;52.132;5.442;2023-08-17T09:13:37;3.35;;;1.67;;
71965;SDS011;59836;52.132;5.442;2023-08-17T09:16:20;4.82;;;1.48;;
71965;SDS011;59836;52.132;5.442;2023-08-17T09:18:52;3.22;;;1.60;;
71965;SDS011;59836;52.132;5.442;2023-08-17T09:21:21;6.95;;;1.90;;
71965;SDS011;59836;52.132;5.442;2023-08-17T09:23:53;4.27;;;1.90;;
71965;SDS011;59836;52.132;5.442;2023-08-17T09:26:23;4.88;;;1.65;;
71965;SDS011;59836;52.132;5.442;2023-08-17T09:28:51;6.53;;;1.83;;
71965;SDS011;59836;52.132;5.442;2023-08-17T09:31:21;4.15;;;1.60;;
71965;SDS011;59836;52.132;5.442;2023-08-17T09:33:51;4.55;;;2.00;;
71965;SDS011;59836;52.132;5.442;2023-08-17T09:36:21;6.07;;;2.20;;
71965;SDS011;59836;52.132;5.442;2023-08-17T09:38:48;4.35;;;2.05;;
71965;SDS011;59836;52.132;5.442;2023-08-17T09:41:17;4.85;;;2.30;;
71965;SDS011;59836;52.132;5.442;2023-08-17T09:43:45;5.82;;;1.92;;
71965;SDS011;59836;52.132;5.442;2023-08-17T09:46:12;3.40;;;2.25;;
71965;SDS011;59836;52.132;5.442;2023-08-17T09:48:39;6.63;;;2.37;;
71965;SDS011;59836;52.132;5.442;2023-08-17T09:51:06;6.53;;;2.65;;
71965;SDS011;59836;52.132;5.442;2023-08-17T09:53:36;3.83;;;1.73;;
71965;SDS011;59836;52.132;5.442;2023-08-17T09:56:05;4.22;;;1.85;;
71965;SDS011;59836;52.132;5.442;2023-08-17T09:58:43;3.40;;;1.85;;
71965;SDS011;59836;52.132;5.442;2023-08-17T10:01:10;6.43;;;2.30;;
71965;SDS011;59836;52.132;5.442;2023-08-17T10:03:39;4.55;;;2.30;;
71965;SDS011;59836;52.132;5.442;2023-08-17T10:06:10;4.72;;;1.98;;
71965;SDS011;59836;52.132;5.442;2023-08-17T10:08:41;5.43;;;2.20;;
71965;SDS011;59836;52.132;5.442;2023-08-17T10:11:10;3.75;;;2.28;;
71965;SDS011;59836;52.132;5.442;2023-08-17T10:13:56;8.60;;;2.57;;
71965;SDS011;59836;52.132;5.442;2023-08-17T10:16:36;5.30;;;2.30;;
71965;SDS011;59836;52.132;5.442;2023-08-17T10:19:22;5.65;;;2.60;;
71965;SDS011;59836;52.132;5.442;2023-08-17T10:22:00;5.57;;;2.25;;
71965;SDS011;59836;52.132;5.442;2023-08-17T10:24:33;4.25;;;2.00;;
71965;SDS011;59836;52.132;5.442;2023-08-17T10:27:03;4.40;;;2.80;;
71965;SDS011;59836;52.132;5.442;2023-08-17T10:29:32;4.13;;;2.03;;
71965;SDS011;59836;52.132;5.442;2023-08-17T10:32:01;5.90;;;1.88;;
71965;SDS011;59836;52.132;5.442;2023-08-17T10:34:28;4.50;;;1.95;;
71965;SDS011;59836;52.132;5.442;2023-08-17T10:36:56;5.78;;;2.45;;
71965;SDS011;59836;52.132;5.442;2023-08-17T10:39:27;6.97;;;2.27;;
71965;SDS011;59836;52.132;5.442;2023-08-17T10:41:57;7.15;;;2.40;;
71965;SDS011;59836;52.132;5.442;2023-08-17T10:47:18;7.47;;;2.10;;
71965;SDS011;59836;52.132;5.442;2023-08-17T10:50:05;6.38;;;2.50;;
71965;SDS011;59836;52.132;5.442;2023-08-17T10:52:50;4.37;;;2.00;;
71965;SDS011;59836;52.132;5.442;2023-08-17T10:55:38;6.28;;;2.33;;
71965;SDS011;59836;52.132;5.442;2023-08-17T10:58:08;8.60;;;2.05;;
71965;SDS011;59836;52.132;5.442;2023-08-17T11:00:53;5.80;;;2.30;;
71965;SDS011;59836;52.132;5.442;2023-08-17T11:06:14;4.00;;;2.07;;
71965;SDS011;59836;52.132;5.442;2023-08-17T11:12:24;5.32;;;2.00;;
71965;SDS011;59836;52.132;5.442;2023-08-17T11:14:57;5.45;;;2.67;;
71965;SDS011;59836;52.132;5.442;2023-08-17T11:17:30;6.25;;;2.72;;
71965;SDS011;59836;52.132;5.442;2023-08-17T11:26:22;6.50;;;2.88;;
71965;SDS011;59836;52.132;5.442;2023-08-17T11:28:55;5.95;;;2.75;;
71965;SDS011;59836;52.132;5.442;2023-08-17T11:31:23;8.68;;;2.58;;
71965;SDS011;59836;52.132;5.442;2023-08-17T11:33:54;4.30;;;2.33;;
71965;SDS011;59836;52.132;5.442;2023-08-17T11:36:21;6.47;;;2.63;;
71965;SDS011;59836;52.132;5.442;2023-08-17T11:38:54;7.07;;;3.20;;
71965;SDS011;59836;52.132;5.442;2023-08-17T11:41:21;6.50;;;2.65;;
71965;SDS011;59836;52.132;5.442;2023-08-17T11:46:49;4.00;;;2.43;;
71965;SDS011;59836;52.132;5.442;2023-08-17T11:51:55;7.05;;;2.63;;
71965;SDS011;59836;52.132;5.442;2023-08-17T11:54:39;4.90;;;2.83;;
71965;SDS011;59836;52.132;5.442;2023-08-17T11:57:09;4.65;;;2.70;;
71965;SDS011;59836;52.132;5.442;2023-08-17T11:59:52;4.20;;;2.90;;
71965;SDS011;59836;52.132;5.442;2023-08-17T12:02:24;6.68;;;3.03;;
71965;SDS011;59836;52.132;5.442;2023-08-17T12:04:57;4.55;;;2.15;;
71965;SDS011;59836;52.132;5.442;2023-08-17T12:07:24;5.88;;;2.47;;
71965;SDS011;59836;52.132;5.442;2023-08-17T12:09:55;8.63;;;2.78;;
71965;SDS011;59836;52.132;5.442;2023-08-17T12:12:21;4.83;;;2.70;;
71965;SDS011;59836;52.132;5.442;2023-08-17T12:14:49;6.10;;;3.15;;
71965;SDS011;59836;52.132;5.442;2023-08-17T12:17:18;4.82;;;2.63;;
71965;SDS011;59836;52.132;5.442;2023-08-17T12:20:14;4.93;;;2.38;;
71965;SDS011;59836;52.132;5.442;2023-08-17T12:22:45;6.28;;;2.75;;
71965;SDS011;59836;52.132;5.442;2023-08-17T12:27:53;5.93;;;2.83;;
71965;SDS011;59836;52.132;5.442;2023-08-17T12:30:24;5.13;;;2.33;;
71965;SDS011;59836;52.132;5.442;2023-08-17T12:33:09;5.53;;;2.47;;
71965;SDS011;59836;52.132;5.442;2023-08-17T12:35:37;5.22;;;2.58;;
71965;SDS011;59836;52.132;5.442;2023-08-17T12:38:04;4.97;;;2.17;;
71965;SDS011;59836;52.132;5.442;2023-08-17T12:40:40;5.70;;;2.38;;
71965;SDS011;59836;52.132;5.442;2023-08-17T12:43:07;4.43;;;2.70;;
71965;SDS011;59836;52.132;5.442;2023-08-17T12:45:33;5.35;;;2.67;;
71965;SDS011;59836;52.132;5.442;2023-08-17T12:48:04;4.07;;;2.70;;
71965;SDS011;59836;52.132;5.442;2023-08-17T12:53:10;5.38;;;2.80;;
71965;SDS011;59836;52.132;5.442;2023-08-17T12:55:41;4.72;;;2.40;;
71965;SDS011;59836;52.132;5.442;2023-08-17T12:58:11;3.65;;;2.40;;
71965;SDS011;59836;52.132;5.442;2023-08-17T13:00:37;6.32;;;2.85;;
71965;SDS011;59836;52.132;5.442;2023-08-17T13:03:04;5.37;;;2.93;;
71965;SDS011;59836;52.132;5.442;2023-08-17T13:05:32;5.10;;;2.70;;
71965;SDS011;59836;52.132;5.442;2023-08-17T13:07:59;4.15;;;2.45;;
71965;SDS011;59836;52.132;5.442;2023-08-17T13:10:26;4.18;;;2.17;;
71965;SDS011;59836;52.132;5.442;2023-08-17T13:12:57;5.35;;;2.80;;
71965;SDS011;59836;52.132;5.442;2023-08-17T13:15:26;5.43;;;3.07;;
71965;SDS011;59836;52.132;5.442;2023-08-17T13:17:53;4.35;;;2.38;;
71965;SDS011;59836;52.132;5.442;2023-08-17T13:20:30;5.85;;;2.70;;
71965;SDS011;59836;52.132;5.442;2023-08-17T13:22:57;5.93;;;2.90;;
71965;SDS011;59836;52.132;5.442;2023-08-17T13:28:37;4.30;;;3.13;;
71965;SDS011;59836;52.132;5.442;2023-08-17T13:31:17;6.18;;;3.13;;
71965;SDS011;59836;52.132;5.442;2023-08-17T13:34:00;4.75;;;2.53;;
71965;SDS011;59836;52.132;5.442;2023-08-17T13:36:27;4.45;;;2.78;;
71965;SDS011;59836;52.132;5.442;2023-08-17T13:39:09;4.63;;;2.80;;
71965;SDS011;59836;52.132;5.442;2023-08-17T13:41:39;5.73;;;2.83;;
71965;SDS011;59836;52.132;5.442;2023-08-17T13:44:09;4.75;;;2.70;;
71965;SDS011;59836;52.132;5.442;2023-08-17T13:46:44;4.13;;;2.33;;
71965;SDS011;59836;52.132;5.442;2023-08-17T13:49:39;3.00;;;2.40;;
71965;SDS011;59836;52.132;5.442;2023-08-17T13:52:06;5.03;;;2.70;;
71965;SDS011;59836;52.132;5.442;2023-08-17T13:57:21;3.83;;;3.10;;
71965;SDS011;59836;52.132;5.442;2023-08-17T13:59:49;3.72;;;2.70;;
71965;SDS011;59836;52.132;5.442;2023-08-17T14:02:15;11.93;;;3.42;;
71965;SDS011;59836;52.132;5.442;2023-08-17T14:08:32;5.03;;;2.83;;
71965;SDS011;59836;52.132;5.442;2023-08-17T14:11:06;4.25;;;3.08;;
71965;SDS011;59836;52.132;5.442;2023-08-17T14:19:17;7.13;;;3.40;;
71965;SDS011;59836;52.132;5.442;2023-08-17T14:21:55;5.40;;;3.10;;
71965;SDS011;59836;52.132;5.442;2023-08-17T14:24:32;4.95;;;2.97;;
71965;SDS011;59836;52.132;5.442;2023-08-17T14:27:17;3.95;;;2.95;;
71965;SDS011;59836;52.132;5.442;2023-08-17T14:30:01;5.05;;;3.55;;
71965;SDS011;59836;52.132;5.442;2023-08-17T14:32:30;4.75;;;3.65;;
71965;SDS011;59836;52.132;5.442;2023-08-17T14:35:01;5.03;;;3.60;;
71965;SDS011;59836;52.132;5.442;2023-08-17T14:37:30;5.72;;;3.47;;
71965;SDS011;59836;52.132;5.442;2023-08-17T14:40:08;4.85;;;4.00;;
71965;SDS011;59836;52.132;5.442;2023-08-17T14:46:07;4.93;;;3.53;;
71965;SDS011;59836;52.132;5.442;2023-08-17T14:48:40;5.03;;;3.47;;
71965;SDS011;59836;52.132;5.442;2023-08-17T14:51:16;5.25;;;3.60;;
71965;SDS011;59836;52.132;5.442;2023-08-17T14:57:14;3.75;;;3.20;;
71965;SDS011;59836;52.132;5.442;2023-08-17T14:59:41;5.88;;;3.78;;
71965;SDS011;59836;52.132;5.442;2023-08-17T15:05:00;5.10;;;3.65;;
71965;SDS011;59836;52.132;5.442;2023-08-17T15:07:31;7.38;;;3.67;;
71965;SDS011;59836;52.132;5.442;2023-08-17T15:10:16;6.63;;;4.00;;
71965;SDS011;59836;52.132;5.442;2023-08-17T15:15:50;5.80;;;3.73;;
71965;SDS011;59836;52.132;5.442;2023-08-17T15:24:23;4.85;;;3.70;;
71965;SDS011;59836;52.132;5.442;2023-08-17T15:26:56;5.50;;;4.03;;
71965;SDS011;59836;52.132;5.442;2023-08-17T15:29:25;8.47;;;4.47;;
71965;SDS011;59836;52.132;5.442;2023-08-17T15:31:56;6.07;;;4.50;;
71965;SDS011;59836;52.132;5.442;2023-08-17T15:34:29;6.30;;;3.95;;
71965;SDS011;59836;52.132;5.442;2023-08-17T15:37:40;6.47;;;3.88;;
71965;SDS011;59836;52.132;5.442;2023-08-17T15:40:44;5.90;;;4.50;;
71965;SDS011;59836;52.132;5.442;2023-08-17T15:45:58;5.45;;;4.15;;
71965;SDS011;59836;52.132;5.442;2023-08-17T15:48:28;6.45;;;4.38;;
71965;SDS011;59836;52.132;5.442;2023-08-17T15:50:55;4.97;;;4.20;;
71965;SDS011;59836;52.132;5.442;2023-08-17T15:53:45;6.15;;;4.45;;
71965;SDS011;59836;52.132;5.442;2023-08-17T15:56:28;7.60;;;4.33;;
71965;SDS011;59836;52.132;5.442;2023-08-17T15:58:58;8.02;;;4.50;;
71965;SDS011;59836;52.132;5.442;2023-08-17T16:01:42;4.75;;;4.28;;
71965;SDS011;59836;52.132;5.442;2023-08-17T16:07:22;5.88;;;4.50;;
71965;SDS011;59836;52.132;5.442;2023-08-17T16:25:21;10.40;;;5.37;;
71965;SDS011;59836;52.132;5.442;2023-08-17T16:27:50;6.47;;;5.22;;
71965;SDS011;59836;52.132;5.442;2023-08-17T17:12:22;7.22;;;5.68;;
71965;SDS011;59836;52.132;5.442;2023-08-17T17:15:28;7.53;;;5.37;;
71965;SDS011;59836;52.132;5.442;2023-08-17T18:56:59;8.02;;;5.57;;
71965;SDS011;59836;52.132;5.442;2023-08-17T19:02:01;11.83;;;7.20;;
71965;SDS011;59836;52.132;5.442;2023-08-17T19:04:28;9.73;;;7.03;;
71965;SDS011;59836;52.132;5.442;2023-08-17T19:09:40;9.48;;;6.25;;
71965;SDS011;59836;52.132;5.442;2023-08-17T19:12:08;9.00;;;6.47;;
71965;SDS011;59836;52.132;5.442;2023-08-17T19:14:37;11.83;;;7.43;;
71965;SDS011;59836;52.132;5.442;2023-08-17T19:17:06;9.57;;;6.93;;
71965;SDS011;59836;52.132;5.442;2023-08-17T19:19:35;9.85;;;7.43;;
71965;SDS011;59836;52.132;5.442;2023-08-17T19:22:18;10.80;;;7.57;;
71965;SDS011;59836;52.132;5.442;2023-08-17T19:25:00;11.00;;;7.53;;
71965;SDS011;59836;52.132;5.442;2023-08-17T19:27:36;9.67;;;7.60;;
71965;SDS011;59836;52.132;5.442;2023-08-17T19:36:40;8.90;;;7.25;;
71965;SDS011;59836;52.132;5.442;2023-08-17T19:39:07;12.02;;;7.65;;
71965;SDS011;59836;52.132;5.442;2023-08-17T19:41:33;11.33;;;8.10;;
71965;SDS011;59836;52.132;5.442;2023-08-17T19:44:11;11.57;;;7.88;;
71965;SDS011;59836;52.132;5.442;2023-08-17T19:46:52;11.70;;;7.45;;
71965;SDS011;59836;52.132;5.442;2023-08-17T19:49:29;14.93;;;8.25;;
71965;SDS011;59836;52.132;5.442;2023-08-17T19:51:59;10.52;;;8.13;;
71965;SDS011;59836;52.132;5.442;2023-08-17T19:54:25;11.80;;;7.63;;
71965;SDS011;59836;52.132;5.442;2023-08-17T19:57:05;10.55;;;7.70;;
71965;SDS011;59836;52.132;5.442;2023-08-17T19:59:37;11.02;;;7.88;;
71965;SDS011;59836;52.132;5.442;2023-08-17T20:02:07;13.52;;;8.23;;
71965;SDS011;59836;52.132;5.442;2023-08-17T20:07:43;10.73;;;7.37;;
71965;SDS011;59836;52.132;5.442;2023-08-17T20:10:14;11.63;;;7.60;;
71965;SDS011;59836;52.132;5.442;2023-08-17T20:21:59;9.13;;;6.50;;
71965;SDS011;59836;52.132;5.442;2023-08-17T20:24:32;8.73;;;6.57;;
71965;SDS011;59836;52.132;5.442;2023-08-17T20:27:04;8.05;;;6.32;;
71965;SDS011;59836;52.132;5.442;2023-08-17T20:29:31;9.38;;;7.20;;
71965;SDS011;59836;52.132;5.442;2023-08-17T20:31:58;8.43;;;6.47;;
71965;SDS011;59836;52.132;5.442;2023-08-17T20:34:57;8.00;;;5.77;;